Flight Track Log - Related Links

Times and Time Zones

All times are in EDT time to prevent confusion due to time zone crossing. See the N864AS flight status page for this flight to view local times or setup timezone preferences in your user account.

Time Position Orientation Groundspeed Altitude Reporting Facility
EDT Latitude Longitude Course Direction KTS MPH feet Rate Location/Type
Thu 07:44:02 PM 32.7500 -117.2333 306° West 190 219 1,700  Level Southern California TRACON
Thu 07:45:02 PM 32.8000 -117.3167 301° West 273 314 4,100 2,450 Climbing Southern California TRACON
Thu 07:46:02 PM 32.8333 -117.3833 306° West 292 336 6,600 2,550 Climbing Southern California TRACON
Thu 07:47:02 PM 32.8833 -117.4667 314° West 295 339 9,200 1,700 Climbing Southern California TRACON
Thu 07:48:02 PM 32.9500 -117.5500 314° West 343 395 10,000 400 Climbing Southern California TRACON
Thu 07:49:02 PM 33.0167 -117.6333 326° Northwest 378 435 10,000  Level Southern California TRACON
Thu 07:50:02 PM 33.1000 -117.7000 337° Northwest 375 432 10,000  Level Southern California TRACON
Thu 07:51:03 PM 33.2000 -117.7500 337° Northwest 375 432 10,000  Level Southern California TRACON
Thu 07:52:03 PM 33.3000 -117.8000 333° Northwest 373 429 10,000 -50 Level Southern California TRACON
Thu 07:53:03 PM 33.3833 -117.8500 337° Northwest 313 360 9,900 -900 Descending Southern California TRACON
Thu 07:54:03 PM 33.4500 -117.8833 342° North 276 318 8,200 -950 Descending Southern California TRACON
Thu 07:55:03 PM 33.5333 -117.9167 328° Northwest 279 321 8,000 -100 Descending Southern California TRACON
Thu 07:56:03 PM 33.6000 -117.9667 337° Northwest 291 335 8,000  Level Southern California TRACON
Thu 07:57:03 PM 33.6667 -118.0000 342° North 285 328 8,000 -500 Level Southern California TRACON
Thu 07:58:03 PM 33.7500 -118.0333 348° North 265 305 7,000 -550 Descending Southern California TRACON
Thu 07:59:03 PM 33.8167 -118.0500 348° North 273 314 6,900 -887 Descending Southern California TRACON
Thu 07:59:58 PM 33.8833 -118.0667 312° West 268 308 5,300 -1,774 Descending Southern California TRACON
Thu 08:00:58 PM 33.9333 -118.1333 284° West 271 312 3,500 -1,381 Descending Southern California TRACON
Thu 08:02:04 PM 33.9500 -118.2167 270° West 241 277 2,400 -900 Descending Southern California TRACON
Thu 08:02:58 PM 33.9500 -118.2833 270° West 197 227 1,700 -789 Descending Southern California TRACON
Thu 08:03:58 PM 33.9500 -118.3333 270° West 142 163 900 -800 Descending Southern California TRACON

Login

Don't have an account? Register now (free) for customized features, flight alerts, and more!